createdAt,value
2023-04-01T08:23:11.769Z,13.21
2023-04-01T08:25:22.893Z,13.21
2023-04-01T08:27:47.082Z,12.99
2023-04-01T08:29:53.661Z,12.85
2023-04-01T08:32:02.829Z,12.66
2023-04-01T08:34:15.779Z,12.87
2023-04-01T08:36:23.785Z,12.86
2023-04-01T08:38:46.497Z,12.96
2023-04-01T08:41:28.527Z,13.02
2023-04-01T08:44:09.673Z,13.20
2023-04-01T08:46:48.015Z,13.36
2023-04-01T08:48:56.760Z,13.18
2023-04-01T08:51:17.721Z,13.75
2023-04-01T08:53:28.995Z,13.89
2023-04-01T08:55:37.400Z,13.64
2023-04-01T08:58:18.297Z,13.68
2023-04-01T09:00:31.647Z,13.43
2023-04-01T09:02:55.728Z,13.59
2023-04-01T09:05:08.617Z,13.80
2023-04-01T09:07:45.073Z,13.94
2023-04-01T09:10:00.390Z,13.52
2023-04-01T09:12:29.953Z,13.37
2023-04-01T09:15:00.457Z,13.21
2023-04-01T09:17:21.761Z,13.38
2023-04-01T09:19:44.599Z,13.46
2023-04-01T09:22:16.833Z,13.65
2023-04-01T09:24:26.837Z,13.69
2023-04-01T09:26:36.365Z,14.20
2023-04-01T09:29:23.602Z,14.69
2023-04-01T09:31:49.219Z,14.71
2023-04-01T09:34:16.544Z,14.26
2023-04-01T09:36:41.159Z,13.46
2023-04-01T09:39:03.237Z,13.26
2023-04-01T09:41:19.157Z,13.12
2023-04-01T09:43:49.621Z,13.08
2023-04-01T09:45:55.448Z,13.13
2023-04-01T09:48:09.630Z,12.72
2023-04-01T09:50:18.490Z,12.66
2023-04-01T09:52:44.207Z,12.81
2023-04-01T09:55:35.859Z,12.88
2023-04-01T09:58:30.593Z,13.04
2023-04-01T10:01:08.332Z,13.21
2023-04-01T10:03:39.092Z,13.30
2023-04-01T10:06:19.377Z,13.52
2023-04-01T10:08:40.756Z,13.29
2023-04-01T10:10:50.045Z,13.14
2023-04-01T10:12:56.697Z,12.96
2023-04-01T10:15:31.359Z,13.44
2023-04-01T10:17:54.039Z,13.44
2023-04-01T10:20:35.758Z,13.39
2023-04-01T10:22:44.315Z,13.71
2023-04-01T10:25:25.033Z,14.15
2023-04-01T10:27:42.035Z,13.83
2023-04-01T10:30:24.947Z,13.67
2023-04-01T10:32:28.063Z,13.40
2023-04-01T10:34:46.539Z,13.59
2023-04-01T10:36:49.733Z,14.11
2023-04-01T10:39:01.877Z,14.06
2023-04-01T10:41:29.442Z,14.19
2023-04-01T10:43:42.288Z,14.38
2023-04-01T10:46:03.060Z,13.98
2023-04-01T10:48:30.505Z,14.03
2023-04-01T10:51:02.672Z,14.21
2023-04-01T10:53:26.387Z,14.74
2023-04-01T10:56:17.321Z,14.78
2023-04-01T10:58:33.204Z,15.07
2023-04-01T11:01:09.870Z,15.05
2023-04-01T11:03:28.650Z,15.12
2023-04-01T11:05:57.986Z,14.65
2023-04-01T11:08:13.089Z,14.38
2023-04-01T11:10:21.627Z,14.17
2023-04-01T11:12:30.008Z,14.29
2023-04-01T11:15:04.911Z,14.90
2023-04-01T11:17:40.412Z,15.13
2023-04-01T11:19:46.549Z,15.19
2023-04-01T11:22:20.264Z,15.29
2023-04-01T11:24:41.023Z,15.09
2023-04-01T11:27:09.038Z,15.98
2023-04-01T11:29:25.443Z,16.68
2023-04-01T11:31:53.011Z,16.70
2023-04-01T11:34:11.226Z,16.54
2023-04-01T11:36:44.720Z,16.21
2023-04-01T11:39:09.706Z,15.87
2023-04-01T11:42:06.527Z,15.36
2023-04-01T11:44:23.645Z,14.97
2023-04-01T11:46:36.709Z,14.71
2023-04-01T11:48:45.948Z,13.96
2023-04-01T11:51:00.947Z,13.64
2023-04-01T11:53:10.090Z,13.43
2023-04-01T11:55:29.539Z,13.51
2023-04-01T11:57:35.225Z,13.46
2023-04-01T12:00:01.730Z,13.55
2023-04-01T12:02:17.793Z,13.86
2023-04-01T12:04:58.030Z,13.68
2023-04-01T12:07:36.568Z,13.88
2023-04-01T12:10:17.535Z,14.09
2023-04-01T12:12:54.070Z,14.23
2023-04-01T12:15:15.459Z,14.44
2023-04-01T12:17:36.485Z,14.49
2023-04-01T12:19:41.863Z,15.02
2023-04-01T12:22:19.860Z,14.92
2023-04-01T12:24:34.281Z,14.84
2023-04-01T12:26:51.922Z,14.87
2023-04-01T12:29:00.346Z,14.59
2023-04-01T12:31:24.950Z,14.87
2023-04-01T12:33:56.928Z,15.19
2023-04-01T12:36:12.813Z,14.87
2023-04-01T12:38:30.843Z,14.65
2023-04-01T12:40:56.108Z,14.53
2023-04-01T12:43:40.794Z,14.43
2023-04-01T12:46:01.232Z,14.50
2023-04-01T12:48:45.724Z,14.88
2023-04-01T12:50:57.337Z,15.12
2023-04-01T12:53:14.886Z,15.47
2023-04-01T12:55:36.520Z,16.89
2023-04-01T12:57:45.067Z,18.10
2023-04-01T13:00:19.804Z,19.01
2023-04-01T13:02:34.291Z,18.80
2023-04-01T13:05:13.918Z,17.13
2023-04-01T13:07:28.463Z,16.36
2023-04-01T13:09:51.580Z,16.53
2023-04-01T13:12:32.317Z,16.89
2023-04-01T13:14:46.009Z,16.89
2023-04-01T13:16:58.442Z,16.66
2023-04-01T13:19:19.698Z,16.80
2023-04-01T13:21:40.883Z,18.43
2023-04-01T13:23:52.585Z,19.98
2023-04-01T13:26:13.640Z,18.80
2023-04-01T13:28:26.988Z,18.22
2023-04-01T13:30:39.348Z,18.11
2023-04-01T13:32:55.305Z,17.83
2023-04-01T13:35:28.812Z,17.58
2023-04-01T13:38:04.383Z,17.54
2023-04-01T13:40:26.026Z,17.64
2023-04-01T13:42:32.519Z,17.67
2023-04-01T13:44:56.222Z,17.38
2023-04-01T13:47:07.772Z,17.21
2023-04-01T13:49:25.410Z,16.38
2023-04-01T13:51:36.695Z,16.73
2023-04-01T13:53:45.586Z,16.50
2023-04-01T13:56:23.412Z,16.06
2023-04-01T13:59:03.949Z,16.37
2023-04-01T14:01:11.837Z,17.39
2023-04-01T14:03:53.743Z,16.59
2023-04-01T14:06:15.562Z,16.08
2023-04-01T14:08:51.096Z,16.04
2023-04-01T14:11:26.131Z,15.92
2023-04-01T14:13:58.019Z,16.04
2023-04-01T14:16:09.405Z,16.05
2023-04-01T14:18:25.017Z,15.49
2023-04-01T14:20:34.476Z,14.93
2023-04-01T14:22:53.257Z,14.41
2023-04-01T14:25:24.829Z,14.84
2023-04-01T14:27:47.138Z,15.19
2023-04-01T14:30:08.731Z,14.65
2023-04-01T14:33:09.304Z,14.70
2023-04-01T14:35:20.965Z,15.17
2023-04-01T14:37:57.093Z,15.77
2023-04-01T14:40:21.065Z,16.71
2023-04-01T14:42:29.666Z,18.04
2023-04-01T14:44:57.268Z,17.59
2023-04-01T14:47:05.803Z,17.04
2023-04-01T14:49:23.372Z,16.55
2023-04-01T14:51:39.498Z,16.44
2023-04-01T14:53:58.189Z,16.08
2023-04-01T14:56:03.906Z,15.92
2023-04-01T14:58:16.851Z,15.72
2023-04-01T15:00:19.938Z,15.44
2023-04-01T15:02:50.357Z,15.05
2023-04-01T15:05:27.973Z,15.21
2023-04-01T15:07:31.010Z,15.47
2023-04-01T15:09:48.738Z,15.28
2023-04-01T15:11:57.804Z,15.12
2023-04-01T15:14:03.014Z,15.19
2023-04-01T15:16:33.049Z,15.10
2023-04-01T15:18:47.538Z,15.04
2023-04-01T15:21:07.966Z,15.13
2023-04-01T15:23:29.193Z,15.29
2023-04-01T15:25:59.448Z,15.25
2023-04-01T15:28:13.980Z,15.17
2023-04-01T15:30:26.459Z,15.01
2023-04-01T15:32:49.920Z,14.77
2023-04-01T15:35:14.739Z,15.25
2023-04-01T15:37:28.462Z,15.35
2023-04-01T15:40:03.158Z,15.19
2023-04-01T15:42:23.810Z,15.22
2023-04-01T15:44:52.345Z,15.44
2023-04-01T15:46:57.207Z,15.36
2023-04-01T15:49:10.683Z,15.31
2023-04-01T15:51:23.199Z,15.43
2023-04-01T15:53:31.875Z,15.14
2023-04-01T15:56:01.137Z,15.12
2023-04-01T15:58:21.103Z,15.25
2023-04-01T16:00:30.793Z,15.07
2023-04-01T16:02:44.880Z,15.00
2023-04-01T16:05:09.247Z,14.77
2023-04-01T16:07:11.602Z,14.84
2023-04-01T16:09:40.462Z,14.88
2023-04-01T16:11:48.533Z,14.84
2023-04-01T16:14:25.997Z,14.84
2023-04-01T16:16:43.833Z,14.74
2023-04-01T16:19:08.200Z,14.59
2023-04-01T16:21:20.863Z,14.75
2023-04-01T16:23:42.069Z,14.86
2023-04-01T16:25:57.775Z,14.73
2023-04-01T16:28:29.989Z,14.78
2023-04-01T16:30:45.005Z,14.77
2023-04-01T16:32:54.836Z,14.78
2023-04-01T16:35:25.663Z,14.80
2023-04-01T16:37:47.299Z,14.76
2023-04-01T16:40:10.889Z,14.61
2023-04-01T16:42:33.066Z,14.52
2023-04-01T16:45:04.473Z,14.45
2023-04-01T16:47:11.877Z,14.29
2023-04-01T16:49:17.190Z,14.26
2023-04-01T16:51:20.915Z,14.27
2023-04-01T16:53:46.238Z,14.16
2023-04-01T16:56:06.049Z,14.20
2023-04-01T16:58:15.080Z,14.10
2023-04-01T17:00:24.085Z,14.01
2023-04-01T17:02:33.232Z,14.03
2023-04-01T17:04:46.133Z,13.96
2023-04-01T17:07:00.476Z,13.91
2023-04-01T17:09:31.520Z,14.00
2023-04-01T17:11:46.765Z,13.84
2023-04-01T17:14:08.124Z,13.80
2023-04-01T17:16:39.788Z,13.67
2023-04-01T17:19:25.660Z,13.60
2023-04-01T17:21:34.007Z,13.59
2023-04-01T17:23:45.746Z,13.56
2023-04-01T17:25:54.931Z,13.45
2023-04-01T17:28:37.478Z,13.48
2023-04-01T17:31:16.013Z,13.42
2023-04-01T17:33:54.301Z,13.35
2023-04-01T17:36:07.144Z,13.38
2023-04-01T17:38:31.974Z,13.37
2023-04-01T17:40:51.808Z,13.39
2023-04-01T17:43:27.140Z,13.32
2023-04-01T17:45:56.171Z,13.30
2023-04-01T17:48:44.049Z,13.26
2023-04-01T17:51:16.936Z,13.17
2023-04-01T17:53:54.387Z,13.23
2023-04-01T17:56:05.079Z,13.12
2023-04-01T17:58:36.175Z,13.12
2023-04-01T18:01:02.021Z,13.10
2023-04-01T18:03:42.636Z,13.10
2023-04-01T18:06:07.200Z,13.09
2023-04-01T18:08:38.116Z,13.04
2023-04-01T18:11:20.085Z,13.08
2023-04-01T18:13:36.331Z,13.06
2023-04-01T18:15:52.475Z,12.99
2023-04-01T18:18:20.188Z,12.94
2023-04-01T18:20:55.593Z,12.91
2023-04-01T18:23:14.043Z,12.87
2023-04-01T18:25:38.302Z,12.87
2023-04-01T18:27:47.558Z,12.78
2023-04-01T18:30:03.363Z,12.80
2023-04-01T18:32:37.435Z,12.72
2023-04-01T18:35:00.122Z,12.67
2023-04-01T18:37:40.774Z,12.68
2023-04-01T18:39:50.180Z,12.58
2023-04-01T18:42:27.339Z,12.65
2023-04-01T18:44:59.609Z,12.67
2023-04-01T18:47:22.137Z,12.51
2023-04-01T18:49:35.812Z,12.51
2023-04-01T18:51:51.252Z,12.49
2023-04-01T18:54:10.713Z,12.50
2023-04-01T18:56:28.130Z,12.48
2023-04-01T18:59:05.022Z,12.44
2023-04-01T19:01:26.244Z,12.33
2023-04-01T19:03:42.114Z,12.33
2023-04-01T19:05:48.728Z,12.28
2023-04-01T19:07:57.669Z,12.25
2023-04-01T19:11:02.888Z,12.33
2023-04-01T19:13:12.724Z,12.23
2023-04-01T19:15:31.412Z,12.23
2023-04-01T19:18:08.564Z,12.19
2023-04-01T19:20:43.406Z,12.23
2023-04-01T19:22:50.273Z,12.17
2023-04-01T19:25:23.424Z,12.10
2023-04-01T19:27:40.602Z,12.09
2023-04-01T19:30:12.096Z,12.07
2023-04-01T19:32:40.684Z,12.05
2023-04-01T19:35:07.617Z,12.08
2023-04-01T19:37:32.171Z,12.06
2023-04-01T19:39:54.608Z,12.05
2023-04-01T19:42:21.573Z,12.02
2023-04-01T19:45:41.979Z,12.06
2023-04-01T19:48:12.935Z,11.94
2023-04-01T19:50:25.172Z,12.06
2023-04-01T19:52:42.531Z,11.94
2023-04-01T19:55:17.124Z,12.06
2023-04-01T19:57:23.497Z,11.90
2023-04-01T19:59:57.950Z,11.85
2023-04-01T20:02:12.437Z,11.93
2023-04-01T20:04:33.577Z,11.94
2023-04-01T20:06:45.481Z,11.87
2023-04-01T20:09:16.435Z,11.75
2023-04-01T20:11:46.384Z,11.90
2023-04-01T20:14:06.740Z,11.80
2023-04-01T20:16:10.964Z,11.77
2023-04-01T20:18:23.592Z,11.58
2023-04-01T20:20:33.379Z,11.66
2023-04-01T20:23:08.592Z,11.61
2023-04-01T20:25:18.284Z,11.56
2023-04-01T20:27:28.483Z,11.50
2023-04-01T20:29:33.033Z,11.46
2023-04-01T20:31:43.628Z,11.52
2023-04-01T20:33:55.626Z,11.44
2023-04-01T20:36:37.245Z,11.47
2023-04-01T20:38:52.507Z,11.45
2023-04-01T20:41:09.173Z,11.57
2023-04-01T20:43:14.696Z,11.51
2023-04-01T20:45:29.449Z,11.39
2023-04-01T20:47:57.197Z,11.36
2023-04-01T20:50:17.050Z,11.38
2023-04-01T20:52:32.374Z,11.37
2023-04-01T20:55:22.844Z,11.33
2023-04-01T20:57:31.659Z,11.26
2023-04-01T20:59:48.392Z,11.31
2023-04-01T21:02:19.226Z,11.32
2023-04-01T21:04:56.652Z,11.23
2023-04-01T21:07:11.264Z,11.29
2023-04-01T21:09:25.817Z,10.97
2023-04-01T21:11:57.692Z,10.92
2023-04-01T21:14:37.732Z,10.76
2023-04-01T21:16:54.072Z,10.65
2023-04-01T21:19:26.723Z,10.71
2023-04-01T21:21:41.272Z,10.59
2023-04-01T21:24:05.160Z,10.43
2023-04-01T21:26:31.719Z,10.47
2023-04-01T21:28:50.002Z,10.42
2023-04-01T21:31:17.891Z,10.37
2023-04-01T21:33:43.734Z,10.50
2023-04-01T21:36:17.413Z,10.54
2023-04-01T21:38:45.450Z,10.63
2023-04-01T21:41:35.947Z,10.61
2023-04-01T21:43:53.775Z,10.65
2023-04-01T21:46:11.675Z,10.80
2023-04-01T21:48:17.220Z,10.76
2023-04-01T21:50:45.103Z,10.79
2023-04-01T21:53:16.135Z,10.85
2023-04-01T21:55:48.623Z,10.88
2023-04-01T21:57:56.866Z,10.81
2023-04-01T22:00:01.831Z,10.77
2023-04-01T22:02:41.801Z,10.76
2023-04-01T22:05:08.443Z,10.77
2023-04-01T22:07:24.714Z,10.86
2023-04-01T22:09:36.561Z,10.78
2023-04-01T22:12:03.959Z,10.76
2023-04-01T22:14:22.378Z,10.69
2023-04-01T22:16:38.023Z,10.73
2023-04-01T22:18:51.930Z,10.80
2023-04-01T22:21:06.306Z,10.73
2023-04-01T22:23:09.085Z,10.73
2023-04-01T22:25:22.598Z,10.66
2023-04-01T22:27:37.466Z,10.71
2023-04-01T22:29:48.092Z,10.66
2023-04-01T22:31:54.307Z,10.55
2023-04-01T22:34:09.962Z,10.62
2023-04-01T22:36:41.883Z,10.61
2023-04-01T22:38:56.057Z,10.61
2023-04-01T22:41:19.852Z,10.58
2023-04-01T22:43:44.266Z,10.58
2023-04-01T22:45:49.814Z,10.55
2023-04-01T22:48:02.501Z,10.50
2023-04-01T22:50:26.263Z,10.41
2023-04-01T22:52:34.868Z,10.35
2023-04-01T22:54:49.013Z,10.38
2023-04-01T22:56:56.661Z,10.37
2023-04-01T22:59:14.749Z,10.50
2023-04-01T23:01:24.640Z,10.29
2023-04-01T23:03:31.752Z,10.29
2023-04-01T23:05:41.014Z,10.14
2023-04-01T23:07:50.286Z,10.29
2023-04-01T23:09:55.569Z,10.29
2023-04-01T23:12:02.198Z,10.20
2023-04-01T23:14:24.497Z,10.24
2023-04-01T23:16:36.850Z,10.14
2023-04-01T23:19:03.113Z,10.13
2023-04-01T23:21:08.183Z,10.13
2023-04-01T23:23:33.647Z,10.06
2023-04-01T23:25:57.613Z,10.03
2023-04-01T23:28:33.984Z,10.03
2023-04-01T23:30:39.891Z,10.10
2023-04-01T23:32:42.407Z,10.01
2023-04-01T23:34:53.133Z,9.99
2023-04-01T23:37:04.215Z,9.94
2023-04-01T23:39:31.454Z,9.90
2023-04-01T23:41:34.438Z,9.81
2023-04-01T23:43:40.441Z,9.90
2023-04-01T23:45:43.743Z,9.91
2023-04-01T23:47:49.946Z,9.89
2023-04-01T23:49:57.119Z,9.84
2023-04-01T23:52:05.353Z,9.93
2023-04-01T23:54:24.335Z,9.91
2023-04-01T23:56:55.540Z,9.79
2023-04-01T23:58:57.935Z,9.77
